Time;durP1;ratioP1;P1;durP2;ratioP2;P2;SDS_P1;SDS_P2;PMS_P1;PMS_P2;Temp;Humidity;BMP_temperature;BMP_pressure;BME280_temperature;BME280_humidity;BME280_pressure;Samples;Min_cycle;Max_cycle;Signal;HPM_P1;HPM_P2
2022/11/21 00:01:44;;;;;;;71.63;28.08;;;9.30;59.10;;;;;;4990521;28;20026;-87
2022/11/21 00:04:10;;;;;;;77.70;28.63;;;9.40;60.10;;;;;;5011173;28;20071;-88
2022/11/21 00:06:37;;;;;;;73.78;28.27;;;9.50;60.50;;;;;;4986101;28;20517;-86
2022/11/21 00:09:03;;;;;;;76.05;29.70;;;9.60;60.90;;;;;;4965839;28;20050;-88
2022/11/21 00:11:30;;;;;;;85.80;30.48;;;9.60;60.40;;;;;;4954920;28;20047;-93
2022/11/21 00:13:56;;;;;;;76.50;31.08;;;9.60;60.60;;;;;;4979880;28;20037;-91
2022/11/21 00:16:23;;;;;;;69.05;26.58;;;9.60;60.90;;;;;;4988970;28;20057;-84
2022/11/21 00:18:49;;;;;;;76.13;28.40;;;9.60;61.80;;;;;;5001441;28;20118;-88
2022/11/21 00:21:17;;;;;;;88.60;29.98;;;9.50;62.80;;;;;;4985963;28;20066;-87
2022/11/21 00:23:44;;;;;;;88.93;27.38;;;9.50;62.90;;;;;;4986090;28;20086;-89
2022/11/21 00:26:11;;;;;;;284.55;38.60;;;9.90;61.90;;;;;;4985901;28;20021;-87
2022/11/21 00:28:45;;;;;;;195.55;32.00;;;10.10;61.30;;;;;;4971446;28;20088;-86
2022/11/21 00:31:19;;;;;;;115.15;29.48;;;10.20;61.20;;;;;;4973663;28;20035;-92
2022/11/21 00:33:45;;;;;;;104.97;27.83;;;9.90;61.70;;;;;;4985995;28;20093;-86
2022/11/21 00:36:10;;;;;;;287.23;42.05;;;9.90;62.10;;;;;;4963827;28;20046;-90
2022/11/21 00:38:47;;;;;;;121.72;28.27;;;9.80;62.00;;;;;;4978300;28;20031;-86
2022/11/21 00:41:13;;;;;;;184.23;27.77;;;9.70;62.60;;;;;;4973165;28;20030;-92
2022/11/21 00:43:39;;;;;;;143.27;27.67;;;9.60;62.20;;;;;;4980041;28;20024;-90
2022/11/21 00:46:06;;;;;;;153.20;31.48;;;9.60;63.20;;;;;;4983697;28;20026;-89
2022/11/21 00:48:35;;;;;;;124.45;28.20;;;9.60;63.00;;;;;;4988214;28;20027;-87
2022/11/21 00:51:01;;;;;;;101.93;26.27;;;9.80;62.20;;;;;;4973176;28;20022;-86
2022/11/21 00:53:29;;;;;;;145.77;27.88;;;10.00;62.00;;;;;;4977512;28;20538;-87
2022/11/21 00:55:54;;;;;;;170.52;30.35;;;10.20;61.50;;;;;;4967016;28;20042;-88
2022/11/21 00:58:20;;;;;;;96.40;24.33;;;10.30;60.80;;;;;;4985185;28;20026;-87
2022/11/21 01:00:48;;;;;;;103.88;26.45;;;10.30;61.20;;;;;;4987876;28;20486;-87
2022/11/21 01:03:14;;;;;;;105.20;24.17;;;10.40;60.90;;;;;;4989565;28;20027;-86
2022/11/21 01:05:51;;;;;;;196.90;29.88;;;10.20;60.90;;;;;;4979748;28;20037;-85
2022/11/21 01:08:17;;;;;;;188.75;28.45;;;9.80;61.70;;;;;;4993899;28;20049;-86
2022/11/21 01:10:52;;;;;;;169.93;27.52;;;9.90;61.90;;;;;;5010664;28;20023;-85
2022/11/21 01:13:19;;;;;;;165.95;27.40;;;10.10;61.50;;;;;;4989885;28;20086;-86
2022/11/21 01:15:50;;;;;;;197.50;32.05;;;10.00;61.90;;;;;;4990479;28;20007;-86
2022/11/21 01:18:22;;;;;;;201.77;30.00;;;10.00;61.30;;;;;;4999642;28;20027;-86
2022/11/21 01:20:51;;;;;;;193.82;30.00;;;9.90;61.60;;;;;;5008033;28;20117;-87
2022/11/21 01:23:21;;;;;;;118.00;26.08;;;9.80;61.70;;;;;;4986842;28;20029;-86
2022/11/21 01:25:46;;;;;;;234.77;35.42;;;9.70;62.40;;;;;;4976769;28;20125;-90
2022/11/21 01:28:13;;;;;;;106.18;28.20;;;9.60;62.40;;;;;;4989346;28;20014;-88
2022/11/21 01:30:39;;;;;;;131.82;25.67;;;9.70;62.60;;;;;;4987405;28;20026;-93
2022/11/21 01:33:05;;;;;;;58.13;23.45;;;9.60;62.30;;;;;;4984238;28;20026;-91
2022/11/21 01:35:32;;;;;;;55.53;23.13;;;9.70;62.80;;;;;;4986692;28;20066;-87
2022/11/21 01:37:58;;;;;;;70.25;25.55;;;10.00;61.60;;;;;;4982806;28;20030;-92
2022/11/21 01:40:24;;;;;;;50.92;21.52;;;10.20;61.80;;;;;;4987947;28;20030;-89
2022/11/21 01:42:59;;;;;;;254.30;34.00;;;10.50;60.70;;;;;;4991375;28;20025;-86
2022/11/21 01:45:55;;;;;;;89.65;24.10;;;10.30;60.10;;;;;;4990219;28;20022;-87
2022/11/21 01:48:46;;;;;;;331.60;37.88;;;10.20;61.00;;;;;;4986789;28;20069;-91
2022/11/21 01:51:54;;;;;;;146.57;25.65;;;10.10;60.70;;;;;;4978505;28;20081;-88
2022/11/21 01:54:32;;;;;;;100.85;24.70;;;10.30;60.90;;;;;;4941630;29;20067;-90
2022/11/21 01:57:08;;;;;;;249.23;31.88;;;10.30;60.60;;;;;;4940153;28;20036;-87
2022/11/21 01:59:58;;;;;;;218.75;30.65;;;10.20;60.80;;;;;;4924126;29;20032;-89
2022/11/21 02:02:30;;;;;;;192.32;28.67;;;10.00;60.60;;;;;;4933024;29;20027;-87
2022/11/21 02:04:59;;;;;;;223.75;32.80;;;10.00;61.20;;;;;;4912419;29;20024;-88
2022/11/21 02:07:26;;;;;;;145.18;28.77;;;10.20;60.90;;;;;;4922774;29;20042;-87
2022/11/21 02:09:57;;;;;;;138.23;27.92;;;10.40;60.40;;;;;;4929812;28;20099;-90
2022/11/21 02:12:37;;;;;;;46.05;20.65;;;10.60;60.00;;;;;;4925779;29;20028;-88
2022/11/21 02:15:04;;;;;;;;;;;10.40;59.50;;;;;;4927160;29;20036;-88
2022/11/21 02:17:31;;;;;;;94.72;24.27;;;9.80;60.70;;;;;;4926444;29;19910;-87
2022/11/21 02:20:09;;;;;;;101.47;24.48;;;9.70;61.80;;;;;;4924444;29;20063;-87
2022/11/21 02:22:59;;;;;;;77.93;22.23;;;10.00;60.90;;;;;;4912519;29;20079;-88
2022/11/21 02:25:35;;;;;;;63.65;22.33;;;10.30;60.60;;;;;;4921125;29;20068;-88
2022/11/21 02:28:05;;;;;;;90.90;24.40;;;10.40;60.40;;;;;;4911247;29;20025;-88
2022/11/21 02:30:38;;;;;;;112.90;25.60;;;10.50;60.10;;;;;;4951743;28;20039;-88
2022/11/21 02:33:05;;;;;;;89.57;23.77;;;10.50;59.30;;;;;;4983735;28;20427;-87
2022/11/21 02:35:32;;;;;;;95.22;24.75;;;10.60;58.90;;;;;;4983083;28;20046;-89
2022/11/21 02:38:06;;;;;;;68.78;25.65;;;10.40;59.60;;;;;;4980457;28;20019;-90
2022/11/21 02:40:39;;;;;;;65.97;23.50;;;10.20;59.60;;;;;;4986882;28;20086;-89
2022/11/21 02:43:27;;;;;;;191.10;30.10;;;10.00;59.80;;;;;;4982253;28;20481;-89
2022/11/21 02:45:53;;;;;;;124.00;27.20;;;10.00;59.80;;;;;;4983719;28;20014;-89
2022/11/21 02:48:23;;;;;;;151.57;28.05;;;10.20;59.60;;;;;;4985804;28;20019;-88
2022/11/21 02:50:48;;;;;;;165.23;30.20;;;10.20;59.90;;;;;;4972370;28;20110;-85
2022/11/21 02:53:16;;;;;;;81.20;25.50;;;10.00;60.60;;;;;;4986779;28;20070;-91
2022/11/21 02:55:42;;;;;;;71.43;22.83;;;9.90;60.60;;;;;;4961539;28;20533;-87
2022/11/21 02:58:10;;;;;;;150.85;25.77;;;10.00;60.80;;;;;;4963568;28;20022;-87
2022/11/21 03:00:42;;;;;;;81.70;23.83;;;10.10;60.10;;;;;;4937333;28;20057;-88
2022/11/21 03:03:08;;;;;;;75.32;24.40;;;10.10;60.20;;;;;;4976174;28;20026;-87
2022/11/21 03:05:36;;;;;;;63.95;22.70;;;10.00;60.20;;;;;;4977635;28;20019;-90
2022/11/21 03:08:03;;;;;;;91.03;25.30;;;10.00;60.10;;;;;;4979276;28;20351;-87
2022/11/21 03:10:30;;;;;;;86.03;25.15;;;9.80;60.00;;;;;;4981321;28;20026;-88
2022/11/21 03:12:59;;;;;;;91.95;25.60;;;9.80;60.60;;;;;;4966185;28;20027;-85
2022/11/21 03:15:32;;;;;;;74.90;22.63;;;9.50;62.00;;;;;;4981182;28;20098;-87
2022/11/21 03:18:01;;;;;;;140.65;26.65;;;9.60;61.70;;;;;;4958910;28;20039;-85
2022/11/21 03:20:28;;;;;;;123.47;24.63;;;9.50;61.70;;;;;;4984673;28;20042;-91
2022/11/21 03:22:54;;;;;;;118.47;24.48;;;9.50;62.20;;;;;;4979581;28;20022;-89
2022/11/21 03:25:20;;;;;;;117.57;25.25;;;9.40;62.20;;;;;;4978377;28;20527;-92
2022/11/21 03:27:49;;;;;;;53.83;21.25;;;9.50;62.30;;;;;;4982485;28;20041;-91
2022/11/21 03:30:15;;;;;;;46.25;18.92;;;9.90;61.60;;;;;;4974332;28;20033;-89
2022/11/21 03:32:41;;;;;;;78.78;22.75;;;9.80;61.10;;;;;;4988003;28;20023;-86
2022/11/21 03:35:07;;;;;;;73.97;20.48;;;9.60;61.90;;;;;;5003504;28;20026;-85
2022/11/21 03:37:43;;;;;;;127.13;22.20;;;9.40;62.50;;;;;;4983346;28;20023;-96
2022/11/21 03:40:18;;;;;;;130.40;22.77;;;9.30;62.10;;;;;;4986644;28;20497;-89
2022/11/21 03:42:49;;;;;;;175.07;29.30;;;9.30;62.40;;;;;;4983791;28;20018;-88
2022/11/21 03:45:16;;;;;;;68.93;21.50;;;9.30;62.10;;;;;;4968369;28;20111;-91
2022/11/21 03:47:44;;;;;;;91.93;23.77;;;9.50;62.10;;;;;;4999387;28;20118;-87
2022/11/21 03:50:17;;;;;;;65.38;21.52;;;9.60;61.80;;;;;;4987370;28;20041;-88
2022/11/21 03:52:43;;;;;;;108.38;21.27;;;9.70;61.20;;;;;;4987359;28;20041;-87
2022/11/21 03:55:16;;;;;;;106.55;22.08;;;9.80;61.10;;;;;;4983879;28;20038;-87
2022/11/21 03:57:42;;;;;;;64.30;19.95;;;9.60;61.00;;;;;;4985967;28;20026;-86
2022/11/21 04:00:14;;;;;;;76.95;22.42;;;9.40;61.60;;;;;;4987796;28;20057;-87
2022/11/21 04:02:41;;;;;;;55.33;21.27;;;9.30;61.40;;;;;;4987680;28;20035;-92
2022/11/21 04:05:07;;;;;;;56.95;20.13;;;9.50;61.50;;;;;;4983272;28;20035;-87
2022/11/21 04:07:32;;;;;;;69.43;21.15;;;9.80;61.40;;;;;;4983759;28;20021;-86
2022/11/21 04:10:04;;;;;;;84.10;21.02;;;9.80;61.00;;;;;;4965806;28;20027;-87
2022/11/21 04:12:30;;;;;;;75.65;21.02;;;9.50;61.30;;;;;;4983919;28;20018;-89
2022/11/21 04:14:56;;;;;;;62.22;20.25;;;9.60;60.80;;;;;;4982117;28;20015;-87
2022/11/21 04:17:23;;;;;;;57.63;19.92;;;9.50;61.30;;;;;;4984109;28;20053;-87
2022/11/21 04:19:49;;;;;;;102.22;22.80;;;9.40;61.20;;;;;;4979242;28;20022;-88
2022/11/21 04:22:32;;;;;;;63.08;19.98;;;9.20;61.60;;;;;;4993326;28;20018;-87
2022/11/21 04:24:57;;;;;;;101.97;22.63;;;9.20;61.90;;;;;;4970661;28;20030;-87
2022/11/21 04:27:30;;;;;;;58.50;18.65;;;9.10;61.40;;;;;;4990448;28;20045;-86
2022/11/21 04:29:59;;;;;;;93.13;21.25;;;9.10;62.10;;;;;;4990061;28;20026;-92
2022/11/21 04:32:25;;;;;;;87.55;20.27;;;9.00;62.40;;;;;;4986465;28;20031;-93
2022/11/21 04:34:50;;;;;;;210.25;26.50;;;9.10;62.20;;;;;;4991091;28;20469;-85
2022/11/21 04:37:16;;;;;;;62.03;20.90;;;9.00;62.10;;;;;;4972575;28;20064;-86
2022/11/21 04:39:42;;;;;;;204.70;28.42;;;9.00;62.30;;;;;;5004993;28;20019;-88
2022/11/21 04:42:08;;;;;;;222.85;29.08;;;9.10;61.80;;;;;;4988682;28;20050;-86
2022/11/21 04:44:34;;;;;;;120.32;24.45;;;9.20;62.20;;;;;;4991030;28;20018;-87
2022/11/21 04:47:00;;;;;;;219.98;28.65;;;9.00;62.80;;;;;;4992858;28;20025;-88
2022/11/21 04:49:28;;;;;;;71.78;20.35;;;9.10;62.50;;;;;;4986505;28;20034;-86
2022/11/21 04:51:54;;;;;;;119.53;24.98;;;9.20;62.50;;;;;;4980933;28;20014;-88
2022/11/21 04:54:21;;;;;;;67.55;20.38;;;9.40;61.70;;;;;;4996320;28;20050;-88
2022/11/21 04:57:03;;;;;;;97.25;23.25;;;9.50;61.30;;;;;;5005704;28;20026;-87
2022/11/21 04:59:30;;;;;;;207.07;27.35;;;9.50;61.30;;;;;;4991026;28;20401;-87
2022/11/21 05:01:59;;;;;;;65.38;21.13;;;9.30;62.00;;;;;;4987085;28;20022;-87
2022/11/21 05:04:37;;;;;;;68.72;21.08;;;9.30;61.70;;;;;;4974142;28;20041;-87
2022/11/21 05:07:03;;;;;;;122.13;24.23;;;9.30;62.30;;;;;;4963861;28;20022;-87
2022/11/21 05:09:29;;;;;;;88.88;23.85;;;9.40;62.10;;;;;;4987978;28;20026;-86
2022/11/21 05:14:55;;;;;;;83.50;23.67;;;9.60;61.80;;;;;;5004483;28;20164;-87
2022/11/21 05:17:21;;;;;;;266.95;39.17;;;9.40;62.00;;;;;;4986940;28;20090;-86
2022/11/21 05:19:47;;;;;;;79.40;29.70;;;9.50;61.90;;;;;;4988537;28;20038;-88
2022/11/21 05:22:13;;;;;;;72.72;25.17;;;9.10;62.80;;;;;;5007568;28;20021;-87
2022/11/21 05:24:39;;;;;;;162.65;37.05;;;9.00;63.30;;;;;;4987624;28;20120;-87
2022/11/21 05:27:08;;;;;;;93.43;35.35;;;8.70;63.80;;;;;;4988713;28;20120;-90
2022/11/21 05:29:34;;;;;;;144.20;29.55;;;8.60;63.90;;;;;;4988559;28;20015;-85
2022/11/21 05:32:00;;;;;;;100.63;24.88;;;8.40;65.00;;;;;;4980483;28;20027;-88
2022/11/21 05:34:27;;;;;;;65.22;22.63;;;8.30;65.50;;;;;;4969278;28;20231;-86
2022/11/21 05:37:00;;;;;;;91.57;20.88;;;8.50;65.40;;;;;;4984710;28;20050;-92
2022/11/21 05:39:27;;;;;;;97.88;23.73;;;8.90;64.30;;;;;;4987204;28;20027;-88
2022/11/21 05:41:53;;;;;;;73.70;23.42;;;9.20;63.10;;;;;;4986963;28;20038;-90
2022/11/21 05:44:19;;;;;;;101.88;26.17;;;9.30;62.80;;;;;;4999404;28;20037;-92
2022/11/21 05:46:47;;;;;;;85.55;23.52;;;9.30;62.60;;;;;;4984204;28;20006;-90
2022/11/21 05:49:13;;;;;;;48.60;21.58;;;9.20;62.60;;;;;;4985516;28;20068;-93
2022/11/21 05:51:38;;;;;;;91.53;23.80;;;9.20;62.00;;;;;;4984491;28;20409;-92
2022/11/21 05:54:05;;;;;;;89.45;25.40;;;8.90;63.10;;;;;;4979282;28;20077;-83
2022/11/21 05:56:32;;;;;;;73.30;23.00;;;8.30;64.20;;;;;;4983519;28;20022;-93
2022/11/21 05:58:58;;;;;;;59.75;23.90;;;8.20;64.20;;;;;;4985827;28;20026;-90
2022/11/21 06:04:09;;;;;;;91.90;25.95;;;7.60;66.20;;;;;;4992968;28;20113;-82
2022/11/21 06:06:36;;;;;;;86.93;22.30;;;7.70;66.40;;;;;;4961264;28;20086;-90
2022/11/21 06:09:03;;;;;;;170.10;30.23;;;7.70;66.00;;;;;;4962262;28;20099;-88
2022/11/21 06:11:29;;;;;;;180.25;30.08;;;7.80;66.80;;;;;;4964964;28;20026;-87
2022/11/21 06:13:55;;;;;;;78.63;23.85;;;7.80;66.20;;;;;;4963703;28;20057;-90
2022/11/21 06:16:21;;;;;;;164.43;27.15;;;8.20;65.80;;;;;;4960949;28;20031;-89
2022/11/21 06:18:49;;;;;;;73.53;21.15;;;8.30;64.80;;;;;;4978831;28;20030;-90
2022/11/21 06:21:22;;;;;;;178.77;28.33;;;8.70;64.60;;;;;;4980574;28;20042;-88
2022/11/21 06:23:51;;;;;;;100.47;21.85;;;8.70;63.50;;;;;;4985480;28;20022;-95
2022/11/21 06:26:18;;;;;;;57.78;21.88;;;8.80;64.30;;;;;;4983782;28;20054;-93
2022/11/21 06:28:45;;;;;;;67.75;19.92;;;8.70;64.30;;;;;;4980013;28;20093;-91
2022/11/21 06:31:19;;;;;;;46.47;19.92;;;8.70;63.70;;;;;;4977984;28;20030;-90
2022/11/21 06:33:46;;;;;;;147.15;26.50;;;8.60;64.10;;;;;;4977703;28;20121;-92
2022/11/21 06:36:16;;;;;;;40.03;19.17;;;8.30;65.60;;;;;;4972624;28;20030;-91
2022/11/21 06:38:42;;;;;;;92.78;27.73;;;8.40;65.40;;;;;;4976880;28;20034;-89
2022/11/21 06:41:14;;;;;;;61.38;22.60;;;8.90;64.90;;;;;;4977678;28;20073;-91
2022/11/21 06:43:41;;;;;;;44.85;21.60;;;9.40;63.50;;;;;;4978190;28;20049;-93
2022/11/21 06:46:07;;;;;;;136.20;26.00;;;9.30;62.70;;;;;;4977659;28;20030;-90
2022/11/21 06:48:34;;;;;;;71.28;20.88;;;9.40;62.60;;;;;;4977509;28;20041;-89
2022/11/21 06:51:26;;;;;;;169.98;27.90;;;9.60;62.40;;;;;;4975548;28;20031;-95
2022/11/21 06:53:54;;;;;;;45.97;20.83;;;10.10;61.20;;;;;;4967145;28;20038;-91
2022/11/21 06:56:23;;;;;;;119.93;35.20;;;10.20;60.40;;;;;;4982273;28;20370;-92
2022/11/21 06:58:49;;;;;;;68.40;26.15;;;10.20;60.70;;;;;;4989001;28;20030;-89
2022/11/21 07:01:15;;;;;;;55.08;22.67;;;10.30;60.30;;;;;;4982423;28;20498;-88
2022/11/21 07:03:41;;;;;;;74.95;21.83;;;10.30;60.50;;;;;;4983392;28;20386;-93
2022/11/21 07:06:07;;;;;;;59.90;21.05;;;10.40;60.30;;;;;;4984740;28;20037;-89
2022/11/21 07:08:39;;;;;;;53.92;19.77;;;10.30;60.50;;;;;;4980828;28;20052;-91
2022/11/21 07:11:07;;;;;;;77.00;20.38;;;10.10;60.10;;;;;;4984227;28;20030;-90
2022/11/21 07:13:33;;;;;;;64.93;21.55;;;10.10;60.90;;;;;;4978595;28;20478;-92
2022/11/21 07:16:07;;;;;;;103.70;36.33;;;9.90;62.00;;;;;;4967094;28;20029;-93
2022/11/21 07:18:33;;;;;;;136.40;46.15;;;10.00;61.40;;;;;;4978423;28;20464;-94
2022/11/21 07:21:01;;;;;;;96.35;28.90;;;10.20;61.00;;;;;;4978203;28;20069;-92
2022/11/21 07:23:27;;;;;;;85.75;36.80;;;10.20;60.90;;;;;;4977524;28;20117;-92
2022/11/21 07:25:53;;;;;;;66.82;25.90;;;10.30;61.00;;;;;;4979559;28;20030;-90
2022/11/21 07:28:19;;;;;;;60.70;25.77;;;10.60;60.50;;;;;;4978062;28;20026;-89
2022/11/21 07:30:45;;;;;;;48.55;22.08;;;10.70;59.50;;;;;;4977720;28;20037;-87
2022/11/21 07:33:38;;;;;;;71.03;21.98;;;10.50;60.30;;;;;;4978015;28;20029;-90
2022/11/21 07:36:04;;;;;;;63.90;21.38;;;10.50;60.00;;;;;;4977062;28;20437;-90
2022/11/21 07:38:52;;;;;;;48.10;20.42;;;10.80;59.80;;;;;;4977635;28;20023;-92
2022/11/21 07:41:18;;;;;;;71.05;20.05;;;11.10;59.30;;;;;;4977766;28;20388;-90
2022/11/21 07:43:49;;;;;;;55.15;21.00;;;11.00;60.20;;;;;;4977475;28;20106;-91
2022/11/21 07:46:15;;;;;;;65.60;21.15;;;11.10;59.60;;;;;;4977517;28;20030;-91
2022/11/21 07:49:19;;;;;;;80.97;22.60;;;11.10;60.00;;;;;;4978424;28;20026;-93
2022/11/21 07:51:50;;;;;;;85.22;23.02;;;11.10;59.30;;;;;;4981014;28;20084;-93
2022/11/21 07:54:53;;;;;;;61.15;20.27;;;11.00;59.40;;;;;;4977196;28;20047;-92
2022/11/21 07:57:19;;;;;;;43.65;19.25;;;11.00;60.00;;;;;;4977561;28;20027;-92
2022/11/21 08:00:11;;;;;;;47.50;18.52;;;11.10;59.70;;;;;;4977098;28;20371;-92
2022/11/21 08:03:17;;;;;;;58.10;20.27;;;10.80;60.00;;;;;;4965893;28;20058;-94
2022/11/21 08:05:55;;;;;;;42.78;18.88;;;10.80;60.40;;;;;;4987699;28;20082;-91
2022/11/21 08:11:47;;;;;;;64.32;21.90;;;11.10;60.20;;;;;;4978107;28;20155;-91
2022/11/21 08:14:15;;;;;;;78.67;21.03;;;11.40;59.80;;;;;;4977133;28;20042;-90
2022/11/21 08:17:04;;;;;;;;;;;;;;;;;;;;;
2022/11/21 08:19:42;;;;;;;56.00;20.98;;;11.20;59.80;;;;;;4958392;29;20027;-93
2022/11/21 08:22:08;;;;;;;46.88;20.90;;;11.40;59.50;;;;;;4964577;28;20077;-93
2022/11/21 08:24:42;;;;;;;58.78;21.52;;;11.40;59.40;;;;;;4975017;28;20023;-92
2022/11/21 08:27:13;;;;;;;56.95;22.15;;;11.20;60.00;;;;;;4977636;28;20034;-94
2022/11/21 08:29:39;;;;;;;51.10;20.90;;;11.20;60.10;;;;;;4956862;29;20059;-88
2022/11/21 08:32:56;;;;;;;47.10;19.05;;;11.40;59.90;;;;;;4940027;29;20082;-90
2022/11/21 08:35:52;;;;;;;41.53;18.42;;;11.10;60.00;;;;;;4862676;29;20041;-91
2022/11/21 08:38:26;;;;;;;50.70;18.73;;;10.90;60.50;;;;;;4880756;29;20041;-92
2022/11/21 08:44:27;;;;;;;;;;;10.90;60.80;;;;;;4542790;29;10000518;-95
2022/11/21 08:47:54;;;;;;;;;;;;;;;;;;;;;
2022/11/21 08:50:25;;;;;;;42.90;18.35;;;11.20;60.70;;;;;;4867887;29;20055;-91
2022/11/21 08:56:21;;;;;;;;;;;10.70;62.10;;;;;;4888514;29;20180;-86
2022/11/21 08:58:49;;;;;;;44.30;19.35;;;10.80;61.40;;;;;;4877760;29;19916;-90
2022/11/21 09:01:57;;;;;;;49.58;22.00;;;10.60;63.00;;;;;;4909204;29;20051;-93
2022/11/21 09:05:03;;;;;;;49.25;22.25;;;10.50;62.50;;;;;;4882070;29;20461;-90
2022/11/21 09:07:29;;;;;;;47.25;21.23;;;10.20;63.30;;;;;;4895567;29;20028;-84
2022/11/21 09:09:59;;;;;;;51.65;23.55;;;10.20;63.20;;;;;;4895851;29;20069;-91
2022/11/21 09:12:28;;;;;;;54.85;25.98;;;10.10;63.40;;;;;;4954522;28;20070;-91
2022/11/21 09:18:06;;;;;;;44.92;20.20;;;9.90;64.80;;;;;;4992507;28;20044;-92
2022/11/21 09:21:12;;;;;;;48.83;21.73;;;10.40;63.60;;;;;;4977250;28;20042;-92
2022/11/21 09:23:55;;;;;;;40.63;19.15;;;10.40;63.40;;;;;;4977351;28;20058;-91
2022/11/21 09:26:46;;;;;;;45.03;19.67;;;10.70;63.50;;;;;;4977348;28;20034;-93
2022/11/21 09:29:39;;;;;;;44.72;20.00;;;11.00;62.80;;;;;;4977046;28;20031;-91
2022/11/21 09:32:24;;;;;;;44.08;19.95;;;11.20;62.20;;;;;;4977897;28;20026;-90
2022/11/21 09:35:10;;;;;;;42.90;20.15;;;11.10;62.50;;;;;;4978251;28;20116;-92
2022/11/21 09:37:37;;;;;;;40.13;19.05;;;10.80;62.40;;;;;;4977549;28;20019;-90
2022/11/21 09:40:03;;;;;;;47.78;21.55;;;10.90;62.80;;;;;;4977886;28;20061;-90
2022/11/21 09:43:19;;;;;;;40.42;20.98;;;11.00;62.40;;;;;;4976470;28;20026;-87
2022/11/21 09:46:35;;;;;;;36.70;19.17;;;11.00;62.00;;;;;;4898585;29;20040;-90
2022/11/21 09:52:38;;;;;;;40.20;19.85;;;11.30;61.80;;;;;;4874978;29;20146;-90
2022/11/21 09:55:42;;;;;;;42.67;21.42;;;11.50;62.30;;;;;;4857626;29;20053;-93
2022/11/21 10:02:36;;;;;;;35.25;18.23;;;11.80;61.70;;;;;;4840559;29;20209;-93
2022/11/21 10:05:41;;;;;;;;;;;;;;;;;;;;;
2022/11/21 10:15:07;;;;;;;32.53;18.42;;;12.50;60.30;;;;;;4765583;30;20485;-92
2022/11/21 10:18:10;;;;;;;40.25;24.45;;;12.30;61.00;;;;;;4768754;30;20462;-92
2022/11/21 10:21:00;;;;;;;31.58;18.80;;;12.50;60.60;;;;;;4770138;30;20524;-93
2022/11/21 10:23:43;;;;;;;28.93;16.37;;;12.90;60.00;;;;;;4799989;29;20039;-93
2022/11/21 10:26:53;;;;;;;32.00;17.55;;;13.00;59.80;;;;;;4791032;29;20279;-92
2022/11/21 10:29:57;;;;;;;33.00;16.95;;;13.10;60.20;;;;;;4802519;29;20138;-92
2022/11/21 10:32:33;;;;;;;29.13;15.85;;;13.30;59.10;;;;;;4789874;29;20511;-91
2022/11/21 10:35:23;;;;;;;31.15;16.55;;;13.70;58.50;;;;;;4802416;29;20035;-92
2022/11/21 10:37:56;;;;;;;30.58;17.45;;;14.20;57.40;;;;;;4805251;29;20043;-93
2022/11/21 10:40:35;;;;;;;31.40;17.45;;;13.90;57.70;;;;;;4820693;29;20133;-93
2022/11/21 10:46:01;;;;;;;27.58;17.52;;;13.80;58.50;;;;;;4911496;29;20096;-96
2022/11/21 10:48:40;;;;;;;;;;;;;;;;;;;;;
2022/11/21 10:51:24;;;;;;;29.63;16.75;;;14.10;57.70;;;;;;4976430;28;20027;-94
2022/11/21 10:57:50;;;;;;;27.15;16.73;;;14.30;57.80;;;;;;4976868;28;20069;-91
2022/11/21 11:00:55;;;;;;;;;;;;;;;;;;;;;
2022/11/21 11:03:21;;;;;;;29.27;16.48;;;15.50;55.90;;;;;;4978239;28;20049;-93
2022/11/21 11:05:58;;;;;;;25.83;15.75;;;16.20;55.20;;;;;;4960157;28;20094;-91
2022/11/21 11:08:27;;;;;;;25.40;15.50;;;16.70;54.30;;;;;;4960288;28;20065;-94
2022/11/21 11:11:25;;;;;;;24.70;14.82;;;16.80;53.40;;;;;;4959254;28;20478;-91
2022/11/21 11:14:04;;;;;;;22.08;13.18;;;16.60;52.70;;;;;;4902480;29;20064;-92
2022/11/21 11:16:33;;;;;;;24.20;15.27;;;16.20;54.30;;;;;;4902994;29;20055;-93
2022/11/21 11:19:27;;;;;;;24.42;14.73;;;16.10;54.60;;;;;;4908996;29;20439;-96
2022/11/21 11:21:55;;;;;;;21.85;13.15;;;16.00;54.10;;;;;;4905990;29;20087;-92
2022/11/21 11:24:27;;;;;;;23.85;14.60;;;16.00;54.50;;;;;;4916221;29;20032;-92
2022/11/21 11:27:02;;;;;;;24.13;14.00;;;16.20;54.90;;;;;;4917587;29;20036;-96
2022/11/21 11:29:34;;;;;;;23.65;15.05;;;16.30;54.10;;;;;;4912795;29;20036;-94
2022/11/21 11:32:32;;;;;;;23.25;14.20;;;15.10;56.20;;;;;;4909169;29;20032;-88
2022/11/21 11:35:22;;;;;;;23.52;13.77;;;14.70;56.40;;;;;;4911643;29;20024;-89
2022/11/21 11:38:02;;;;;;;25.38;14.73;;;14.20;58.20;;;;;;4911227;29;20043;-92
2022/11/21 11:40:59;;;;;;;21.50;14.05;;;14.60;57.60;;;;;;4909415;29;20407;-88
2022/11/21 11:50:09;;;;;;;23.00;14.20;;;14.80;56.70;;;;;;4953418;28;20554;-91
2022/11/21 11:52:55;;;;;;;25.05;15.57;;;14.30;58.30;;;;;;4976968;28;20090;-89
2022/11/21 11:55:31;;;;;;;26.42;16.33;;;14.40;57.90;;;;;;4974214;28;20058;-90
2022/11/21 11:58:26;;;;;;;27.92;17.23;;;14.20;58.60;;;;;;4976961;28;20042;-91
2022/11/21 12:01:17;;;;;;;26.27;16.23;;;13.80;59.30;;;;;;4976411;28;20035;-88
2022/11/21 12:04:14;;;;;;;26.95;17.17;;;13.90;59.40;;;;;;4991208;28;20037;-90
2022/11/21 12:07:19;;;;;;;26.10;16.20;;;13.50;60.60;;;;;;4995833;28;20094;-88
2022/11/21 12:10:13;;;;;;;27.92;16.63;;;13.40;61.40;;;;;;4999387;28;20014;-88
2022/11/21 12:12:51;;;;;;;26.63;16.73;;;13.70;61.10;;;;;;4993879;28;20057;-89
2022/11/21 12:15:48;;;;;;;27.98;17.33;;;13.90;60.70;;;;;;4981707;28;20113;-88
2022/11/21 12:18:14;;;;;;;33.60;20.33;;;13.80;60.70;;;;;;4995646;28;20030;-89
2022/11/21 12:21:01;;;;;;;41.05;24.40;;;13.90;61.00;;;;;;4993935;28;20041;-89
2022/11/21 12:23:59;;;;;;;39.13;25.80;;;14.50;59.80;;;;;;4995272;28;20034;-90
2022/11/21 12:26:43;;;;;;;37.60;24.02;;;14.70;59.00;;;;;;4993014;28;20014;-88
2022/11/21 12:29:39;;;;;;;31.67;19.67;;;14.70;58.70;;;;;;4989078;28;20030;-87
2022/11/21 12:32:17;;;;;;;29.13;18.00;;;14.80;58.30;;;;;;4988558;28;20042;-92
2022/11/21 12:35:20;;;;;;;29.35;17.35;;;15.00;58.10;;;;;;4989877;28;20034;-94
2022/11/21 12:37:49;;;;;;;32.85;18.75;;;15.20;57.50;;;;;;4993006;28;20030;-89
2022/11/21 12:40:47;;;;;;;32.95;19.02;;;15.30;57.10;;;;;;4994324;28;20041;-91
2022/11/21 12:43:26;;;;;;;32.85;18.80;;;15.50;57.20;;;;;;4992600;28;20031;-89
2022/11/21 12:46:24;;;;;;;33.07;18.33;;;15.60;56.70;;;;;;4986771;28;20022;-90
2022/11/21 12:55:27;;;;;;;31.30;18.52;;;15.20;57.90;;;;;;5004401;28;20009;-91
2022/11/21 12:58:18;;;;;;;;;;;15.50;57.30;;;;;;4993743;28;20038;-88
2022/11/21 13:01:11;;;;;;;39.20;23.30;;;15.50;57.20;;;;;;4988736;28;19921;-88
2022/11/21 13:04:04;;;;;;;35.78;21.65;;;15.50;57.00;;;;;;4995797;28;20110;-89
2022/11/21 13:07:00;;;;;;;36.42;21.55;;;15.40;57.60;;;;;;4992623;28;20033;-88
2022/11/21 13:09:29;;;;;;;34.05;20.48;;;15.10;57.90;;;;;;4991865;28;20090;-91
2022/11/21 13:12:10;;;;;;;36.85;22.48;;;15.00;58.10;;;;;;4994460;28;20057;-88
2022/11/21 13:15:15;;;;;;;37.55;22.27;;;15.00;58.10;;;;;;4996491;28;20125;-92
2022/11/21 13:18:09;;;;;;;37.00;21.50;;;14.90;57.90;;;;;;4935529;29;20035;-88
2022/11/21 13:20:48;;;;;;;36.13;21.52;;;14.70;58.30;;;;;;4934479;29;20084;-88
2022/11/21 13:23:34;;;;;;;34.95;21.45;;;14.10;59.50;;;;;;4936061;29;20023;-87
2022/11/21 13:25:59;;;;;;;34.25;21.42;;;13.70;60.80;;;;;;4933730;29;20127;-88
2022/11/21 13:28:46;;;;;;;35.08;21.05;;;13.80;60.50;;;;;;4930473;29;20058;-87
2022/11/21 13:31:28;;;;;;;35.72;21.60;;;14.00;59.90;;;;;;4931641;29;20035;-88
2022/11/21 13:33:54;;;;;;;34.78;21.48;;;14.30;59.80;;;;;;4932558;29;20028;-95
2022/11/21 13:36:37;;;;;;;37.40;23.17;;;14.30;59.50;;;;;;4929710;29;20039;-88
2022/11/21 13:39:03;;;;;;;38.67;23.15;;;14.40;59.60;;;;;;4931713;28;20392;-88
2022/11/21 13:44:31;;;;;;;34.15;21.42;;;14.40;59.20;;;;;;4952818;28;20075;-88
2022/11/21 13:47:08;;;;;;;40.72;23.75;;;14.10;60.00;;;;;;4931932;29;20040;-90
2022/11/21 13:49:35;;;;;;;39.08;24.60;;;14.20;59.60;;;;;;4945749;28;20071;-90
2022/11/21 13:52:29;;;;;;;41.03;25.60;;;14.20;59.60;;;;;;4932085;29;20028;-90
2022/11/21 13:55:32;;;;;;;44.13;25.70;;;14.40;59.10;;;;;;4950419;28;20058;-90
2022/11/21 13:58:19;;;;;;;45.30;25.58;;;14.60;58.80;;;;;;4987115;28;20034;-92
2022/11/21 14:01:21;;;;;;;47.22;26.05;;;14.40;58.80;;;;;;4986519;28;20050;-95
2022/11/21 14:03:59;;;;;;;47.55;26.45;;;14.10;59.30;;;;;;4984927;28;20450;-93
2022/11/21 14:06:36;;;;;;;50.67;26.85;;;14.20;59.30;;;;;;4985582;28;20117;-92
2022/11/21 14:09:19;;;;;;;55.30;32.65;;;14.30;59.00;;;;;;4987116;28;20030;-96
2022/11/21 14:11:56;;;;;;;63.05;33.80;;;13.90;59.60;;;;;;4986382;28;20036;-89
2022/11/21 14:14:41;;;;;;;45.22;25.65;;;13.40;60.90;;;;;;4984907;28;20528;-92